createdAt,value
2019-01-06T00:00:19.735Z,72.03
2019-01-06T00:03:08.046Z,70.10
2019-01-06T00:05:52.461Z,71.67
2019-01-06T00:08:40.785Z,81.07
2019-01-06T00:11:29.097Z,84.37
2019-01-06T00:14:15.791Z,75.17
2019-01-06T00:17:11.112Z,83.53
2019-01-06T00:19:49.714Z,94.70
2019-01-06T00:22:30.823Z,90.03
2019-01-06T00:25:17.672Z,103.93
2019-01-06T00:28:23.915Z,106.20
2019-01-06T00:31:20.885Z,85.27
2019-01-06T00:34:05.771Z,98.50
2019-01-06T00:36:52.511Z,124.17
2019-01-06T00:39:50.030Z,97.57
2019-01-06T00:42:41.359Z,106.63
2019-01-06T00:45:30.369Z,101.50
2019-01-06T00:48:24.560Z,93.73
2019-01-06T00:51:11.633Z,105.23
2019-01-06T00:53:58.467Z,147.13
2019-01-06T00:56:46.902Z,97.80
2019-01-06T00:59:44.615Z,96.73
2019-01-06T01:02:48.547Z,94.67
2019-01-06T01:05:35.538Z,89.73
2019-01-06T01:08:22.940Z,81.63
2019-01-06T01:11:23.407Z,73.73
2019-01-06T01:14:18.396Z,82.77
2019-01-06T01:17:23.229Z,75.07
2019-01-06T01:20:06.089Z,60.90
2019-01-06T01:25:42.012Z,66.07
2019-01-06T01:28:44.722Z,72.10
2019-01-06T01:31:39.571Z,70.63
2019-01-06T01:34:24.664Z,71.93
2019-01-06T01:37:11.695Z,59.47
2019-01-06T01:40:05.843Z,66.87
2019-01-06T01:42:54.213Z,70.57
2019-01-06T01:45:54.605Z,65.20
2019-01-06T01:48:47.829Z,59.63
2019-01-06T01:51:45.969Z,65.27
2019-01-06T01:54:40.448Z,57.93
2019-01-06T01:57:37.713Z,61.37
2019-01-06T02:00:35.211Z,64.17
2019-01-06T02:03:30.462Z,60.77
2019-01-06T02:06:21.033Z,65.57
2019-01-06T02:09:09.741Z,67.47
2019-01-06T02:11:50.815Z,61.73
2019-01-06T02:14:38.057Z,59.27
2019-01-06T02:17:25.053Z,75.83
2019-01-06T02:20:12.074Z,71.07
2019-01-06T02:26:07.275Z,59.50
2019-01-06T02:29:07.721Z,70.27
2019-01-06T02:32:04.130Z,66.60
2019-01-06T02:34:51.061Z,87.20
2019-01-06T02:37:39.367Z,91.17
2019-01-06T02:40:22.491Z,84.77
2019-01-06T02:43:25.692Z,85.70
2019-01-06T02:46:12.445Z,129.33
2019-01-06T02:49:02.600Z,157.07
2019-01-06T02:51:48.426Z,102.47
2019-01-06T02:54:55.015Z,98.80
2019-01-06T02:58:01.742Z,110.03
2019-01-06T03:00:48.481Z,93.70
2019-01-06T03:03:42.388Z,86.37
2019-01-06T03:06:29.073Z,65.90
2019-01-06T03:09:20.428Z,62.10
2019-01-06T03:12:07.427Z,58.87
2019-01-06T03:14:46.447Z,60.87
2019-01-06T03:17:32.926Z,57.17
2019-01-06T03:20:27.447Z,128.33
2019-01-06T03:23:14.525Z,114.43
2019-01-06T03:26:16.105Z,117.13
2019-01-06T03:29:10.214Z,88.93
2019-01-06T03:31:48.728Z,117.43
2019-01-06T03:34:40.742Z,90.97
2019-01-06T03:37:41.197Z,158.97
2019-01-06T03:40:29.711Z,173.80
2019-01-06T03:43:24.418Z,143.30
2019-01-06T03:46:11.387Z,131.77
2019-01-06T03:49:00.513Z,133.80
2019-01-06T03:51:47.466Z,109.23
2019-01-06T03:54:38.819Z,122.23
2019-01-06T03:57:40.205Z,86.97
2019-01-06T04:00:43.695Z,79.60
2019-01-06T04:03:37.893Z,75.70
2019-01-06T04:06:25.662Z,187.27
2019-01-06T04:09:28.914Z,150.40
2019-01-06T04:12:15.674Z,140.07
2019-01-06T04:15:09.896Z,179.67
2019-01-06T04:17:56.932Z,220.30
2019-01-06T04:20:49.360Z,187.43
2019-01-06T04:23:42.779Z,182.83
2019-01-06T04:26:37.400Z,235.47
2019-01-06T04:29:36.566Z,140.23
2019-01-06T04:32:23.500Z,235.60
2019-01-06T04:35:10.575Z,246.63
2019-01-06T04:37:57.614Z,243.70
2019-01-06T04:41:04.152Z,140.53
2019-01-06T04:43:50.703Z,177.77
2019-01-06T04:46:39.440Z,177.13
2019-01-06T04:49:26.278Z,168.73
2019-01-06T04:52:13.023Z,59.73
2019-01-06T04:55:19.570Z,73.53
2019-01-06T04:58:16.505Z,155.93
2019-01-06T05:01:14.274Z,147.43
2019-01-06T05:04:02.873Z,93.70
2019-01-06T05:06:51.236Z,100.70
2019-01-06T05:09:51.774Z,58.43
2019-01-06T05:12:40.115Z,72.73
2019-01-06T05:15:34.593Z,89.80
2019-01-06T05:18:23.230Z,75.03
2019-01-06T05:21:10.212Z,74.67
2019-01-06T05:24:10.409Z,129.93
2019-01-06T05:27:01.547Z,61.33
2019-01-06T05:30:04.738Z,65.73
2019-01-06T05:32:59.075Z,55.67
2019-01-06T05:35:47.859Z,58.00
2019-01-06T05:38:34.824Z,56.97
2019-01-06T05:41:21.610Z,52.57
2019-01-06T05:44:13.002Z,57.63
2019-01-06T05:47:17.759Z,45.63
2019-01-06T05:50:08.180Z,55.57
2019-01-06T05:53:11.474Z,53.60
2019-01-06T05:55:59.797Z,54.20
2019-01-06T05:58:56.890Z,51.20
2019-01-06T06:01:49.038Z,50.30
2019-01-06T06:04:43.480Z,53.20
2019-01-06T06:07:40.942Z,57.50
2019-01-06T06:10:27.919Z,57.23
2019-01-06T06:13:16.271Z,52.67
2019-01-06T06:16:00.664Z,49.17
2019-01-06T06:18:47.643Z,49.03
2019-01-06T06:21:45.111Z,53.93
2019-01-06T06:24:27.615Z,58.50
2019-01-06T06:27:14.244Z,54.27
2019-01-06T06:30:00.828Z,54.50
2019-01-06T06:32:47.693Z,58.97
2019-01-06T06:35:35.107Z,64.93
2019-01-06T06:38:21.847Z,63.57
2019-01-06T06:41:00.598Z,64.13
2019-01-06T06:44:01.020Z,60.07
2019-01-06T06:46:52.211Z,64.83
2019-01-06T06:49:53.632Z,60.83
2019-01-06T06:52:44.714Z,71.40
2019-01-06T06:55:31.579Z,58.63
2019-01-06T06:58:32.453Z,62.90
2019-01-06T07:01:32.346Z,69.23
2019-01-06T07:04:23.718Z,68.33
2019-01-06T07:07:10.466Z,69.93
2019-01-06T07:09:57.786Z,72.07
2019-01-06T07:12:48.871Z,73.60
2019-01-06T07:15:42.302Z,61.93
2019-01-06T07:18:51.915Z,63.33
2019-01-06T07:21:47.793Z,51.20
2019-01-06T07:24:36.208Z,56.03
2019-01-06T07:27:22.963Z,56.40
2019-01-06T07:30:23.268Z,58.10
2019-01-06T07:33:01.993Z,57.37
2019-01-06T07:35:56.739Z,63.53
2019-01-06T07:38:53.877Z,60.73
2019-01-06T07:41:54.482Z,55.93
2019-01-06T07:44:42.822Z,56.10
2019-01-06T07:47:29.908Z,60.90
2019-01-06T07:50:17.294Z,51.87
2019-01-06T07:53:02.336Z,40.90
2019-01-06T07:56:04.682Z,32.43
2019-01-06T07:58:53.116Z,38.47
2019-01-06T08:01:40.460Z,37.07
2019-01-06T08:04:27.277Z,37.87
2019-01-06T08:07:14.410Z,37.20
2019-01-06T08:10:01.222Z,41.77
2019-01-06T08:12:48.012Z,32.00
2019-01-06T08:15:34.966Z,31.77
2019-01-06T08:18:33.576Z,29.93
2019-01-06T08:21:37.141Z,30.20
2019-01-06T08:24:24.119Z,25.10
2019-01-06T08:27:11.161Z,31.73
2019-01-06T08:30:05.421Z,28.40
2019-01-06T08:32:44.555Z,19.00
2019-01-06T08:35:42.242Z,21.40
2019-01-06T08:38:37.173Z,22.70
2019-01-06T08:41:25.151Z,24.60
2019-01-06T08:44:13.435Z,19.50
2019-01-06T08:46:50.530Z,20.47
2019-01-06T08:49:33.379Z,18.30
2019-01-06T08:52:27.535Z,15.13
2019-01-06T08:55:14.648Z,19.20
2019-01-06T08:58:05.675Z,16.00
2019-01-06T09:00:52.347Z,13.20
2019-01-06T09:03:43.326Z,14.90
2019-01-06T09:06:40.429Z,14.97
2019-01-06T09:09:24.609Z,13.80
2019-01-06T09:12:11.406Z,13.73
2019-01-06T09:14:58.506Z,14.80
2019-01-06T09:17:59.292Z,15.83
2019-01-06T09:20:56.527Z,12.80
2019-01-06T09:23:43.518Z,15.87
2019-01-06T09:26:38.121Z,12.63
2019-01-06T09:29:25.131Z,13.30
2019-01-06T09:32:07.700Z,17.80
2019-01-06T09:34:55.229Z,24.87
2019-01-06T09:37:50.341Z,18.70
2019-01-06T09:40:53.587Z,16.43
2019-01-06T09:43:41.017Z,24.63
2019-01-06T09:46:32.169Z,16.00
2019-01-06T09:49:29.635Z,18.03
2019-01-06T09:52:17.958Z,17.53
2019-01-06T09:55:05.803Z,21.70
2019-01-06T09:57:52.812Z,20.53
2019-01-06T10:00:39.551Z,20.37
2019-01-06T10:03:26.637Z,16.97
2019-01-06T10:06:15.025Z,18.33
2019-01-06T10:09:13.551Z,21.10
2019-01-06T10:12:11.732Z,17.20
2019-01-06T10:15:00.690Z,15.50
2019-01-06T10:17:47.491Z,14.67
2019-01-06T10:20:42.162Z,14.07
2019-01-06T10:23:33.928Z,12.73
2019-01-06T10:26:28.197Z,16.30
2019-01-06T10:29:19.410Z,15.10
2019-01-06T10:32:26.350Z,14.50
2019-01-06T10:35:13.441Z,14.70
2019-01-06T10:38:00.149Z,16.53
2019-01-06T10:40:54.513Z,13.00
2019-01-06T10:43:58.014Z,15.37
2019-01-06T10:46:44.833Z,24.73
2019-01-06T10:49:25.640Z,23.10
2019-01-06T10:52:17.091Z,21.50
2019-01-06T10:55:08.820Z,21.20
2019-01-06T10:58:00.495Z,14.70
2019-01-06T11:00:56.013Z,16.77
2019-01-06T11:03:56.355Z,16.57
2019-01-06T11:06:56.710Z,16.47
2019-01-06T11:09:54.045Z,16.07
2019-01-06T11:12:40.809Z,14.87
2019-01-06T11:15:44.752Z,16.47
2019-01-06T11:18:33.284Z,13.07
2019-01-06T11:21:31.218Z,13.83
2019-01-06T11:24:18.002Z,14.83
2019-01-06T11:27:05.263Z,14.97
2019-01-06T11:30:02.508Z,14.93
2019-01-06T11:32:48.258Z,17.17
2019-01-06T11:35:43.834Z,19.23
2019-01-06T11:38:31.439Z,23.67
2019-01-06T11:41:25.570Z,20.57
2019-01-06T11:44:14.165Z,23.83
2019-01-06T11:47:00.383Z,20.97
2019-01-06T11:49:52.440Z,20.77
2019-01-06T11:52:46.653Z,23.93
2019-01-06T11:55:47.392Z,21.27
2019-01-06T11:58:34.302Z,21.47
2019-01-06T12:01:26.337Z,24.53
2019-01-06T12:04:07.474Z,18.47
2019-01-06T12:06:55.845Z,24.73
2019-01-06T12:09:50.049Z,17.47
2019-01-06T12:12:38.102Z,17.63
2019-01-06T12:15:27.349Z,20.73
2019-01-06T12:18:23.033Z,19.07
2019-01-06T12:21:22.741Z,19.60
2019-01-06T12:24:11.403Z,22.13
2019-01-06T12:26:58.865Z,22.60
2019-01-06T12:29:59.912Z,22.43
2019-01-06T12:32:54.397Z,23.87
2019-01-06T12:35:46.352Z,26.80
2019-01-06T12:38:52.837Z,14.33
2019-01-06T12:41:53.169Z,14.93
2019-01-06T12:44:47.677Z,17.00
2019-01-06T12:47:39.030Z,13.90
2019-01-06T12:50:26.226Z,17.30
2019-01-06T12:53:05.963Z,16.53
2019-01-06T12:56:00.116Z,11.63
2019-01-06T12:58:47.131Z,11.73
2019-01-06T13:01:32.773Z,12.80
2019-01-06T13:04:39.110Z,15.67
2019-01-06T13:07:32.187Z,13.80
2019-01-06T13:10:19.558Z,15.30
2019-01-06T13:13:06.296Z,16.50
2019-01-06T13:15:53.544Z,19.60
2019-01-06T13:18:40.946Z,16.87
2019-01-06T13:21:27.698Z,16.60
2019-01-06T13:24:14.794Z,19.27
2019-01-06T13:27:03.103Z,18.80
2019-01-06T13:29:46.042Z,22.77
2019-01-06T13:32:33.178Z,18.73
2019-01-06T13:35:30.756Z,17.10
2019-01-06T13:38:28.355Z,16.70
2019-01-06T13:41:22.816Z,20.83
2019-01-06T13:44:10.327Z,20.00
2019-01-06T13:47:01.645Z,18.00
2019-01-06T13:49:52.808Z,19.50
2019-01-06T13:52:39.906Z,20.07
2019-01-06T13:55:34.372Z,22.57
2019-01-06T13:58:21.788Z,16.20
2019-01-06T14:01:08.684Z,17.77
2019-01-06T14:03:55.415Z,19.27
2019-01-06T14:06:43.763Z,18.50
2019-01-06T14:09:30.753Z,22.00
2019-01-06T14:12:17.427Z,23.77
2019-01-06T14:15:23.712Z,18.50
2019-01-06T14:18:27.218Z,20.63
2019-01-06T14:21:24.324Z,18.43
2019-01-06T14:24:11.077Z,20.60
2019-01-06T14:27:11.620Z,17.47
2019-01-06T14:30:07.768Z,19.87
2019-01-06T14:32:54.808Z,17.93
2019-01-06T14:35:56.870Z,20.73
2019-01-06T14:38:48.097Z,21.33
2019-01-06T14:41:51.574Z,18.37
2019-01-06T14:44:38.105Z,21.60
2019-01-06T14:47:26.396Z,23.27
2019-01-06T14:50:14.737Z,20.73
2019-01-06T14:53:01.893Z,17.73
2019-01-06T14:55:55.218Z,19.13
2019-01-06T14:58:35.276Z,17.00
2019-01-06T15:01:18.047Z,14.30
2019-01-06T15:04:05.111Z,12.80
2019-01-06T15:06:49.051Z,11.50
2019-01-06T15:09:30.759Z,14.53
2019-01-06T15:12:34.370Z,13.30
2019-01-06T15:15:31.934Z,14.57
2019-01-06T15:18:21.100Z,12.93
2019-01-06T15:21:21.407Z,12.37
2019-01-06T15:24:09.808Z,8.90
2019-01-06T15:27:10.264Z,8.17
2019-01-06T15:30:09.599Z,8.00
2019-01-06T15:32:56.608Z,7.37
2019-01-06T15:35:43.338Z,6.13
2019-01-06T15:38:30.224Z,10.20
2019-01-06T15:41:33.749Z,7.17
2019-01-06T15:44:27.999Z,7.30
2019-01-06T15:47:16.365Z,10.23
2019-01-06T15:50:07.838Z,4.47
2019-01-06T15:52:55.026Z,4.80
2019-01-06T15:55:52.486Z,10.83
2019-01-06T15:58:44.921Z,4.33
2019-01-06T16:01:37.575Z,5.00
2019-01-06T16:04:24.333Z,4.50
2019-01-06T16:07:11.025Z,6.53
2019-01-06T16:09:59.215Z,4.17
2019-01-06T16:12:46.250Z,4.03
2019-01-06T16:15:50.043Z,6.07
2019-01-06T16:18:37.240Z,5.70
2019-01-06T16:21:37.140Z,8.20
2019-01-06T16:24:26.121Z,5.53
2019-01-06T16:27:12.933Z,8.27
2019-01-06T16:30:01.791Z,7.03
2019-01-06T16:32:50.176Z,8.53
2019-01-06T16:35:50.994Z,10.13
2019-01-06T16:38:39.344Z,9.80
2019-01-06T16:41:28.291Z,9.30
2019-01-06T16:44:15.487Z,13.53
2019-01-06T16:47:02.421Z,8.73
2019-01-06T16:49:49.069Z,9.67
2019-01-06T16:52:38.484Z,12.10
2019-01-06T16:55:22.152Z,7.77
2019-01-06T16:58:09.138Z,16.57
2019-01-06T17:01:15.810Z,13.07
2019-01-06T17:04:03.309Z,11.23
2019-01-06T17:06:57.639Z,5.87
2019-01-06T17:10:04.014Z,9.80
2019-01-06T17:12:51.163Z,10.93
2019-01-06T17:15:39.926Z,6.77
2019-01-06T17:18:26.717Z,16.27
2019-01-06T17:21:21.184Z,14.83
2019-01-06T17:24:12.312Z,17.23
2019-01-06T17:26:59.065Z,6.00
2019-01-06T17:29:40.727Z,12.03
2019-01-06T17:32:27.481Z,16.93
2019-01-06T17:35:14.609Z,15.97
2019-01-06T17:38:12.435Z,11.70
2019-01-06T17:41:01.144Z,17.73
2019-01-06T17:43:55.639Z,12.03
2019-01-06T17:46:59.098Z,23.63
2019-01-06T17:49:46.336Z,18.43
2019-01-06T17:52:33.742Z,9.50
2019-01-06T17:55:20.869Z,22.50
2019-01-06T17:58:09.672Z,20.20
2019-01-06T18:00:55.223Z,18.30
2019-01-06T18:03:41.716Z,15.90
2019-01-06T18:06:28.647Z,16.07
2019-01-06T18:09:17.342Z,19.00
2019-01-06T18:12:05.679Z,16.77
2019-01-06T18:15:00.164Z,26.47
2019-01-06T18:18:03.750Z,17.17
2019-01-06T18:20:57.830Z,13.60
2019-01-06T18:23:44.522Z,16.40
2019-01-06T18:26:50.775Z,12.23
2019-01-06T18:29:37.720Z,14.07
2019-01-06T18:32:24.437Z,19.83
2019-01-06T18:35:12.926Z,16.70
2019-01-06T18:38:04.074Z,15.87
2019-01-06T18:40:58.515Z,19.97
2019-01-06T18:43:52.968Z,14.80
2019-01-06T18:46:44.921Z,19.50
2019-01-06T18:49:45.635Z,25.20
2019-01-06T18:52:48.929Z,14.30
2019-01-06T18:55:35.436Z,24.77
2019-01-06T18:58:42.080Z,37.40
2019-01-06T19:01:38.344Z,25.37
2019-01-06T19:04:25.451Z,28.17
2019-01-06T19:07:12.787Z,35.70
2019-01-06T19:10:03.992Z,22.50
2019-01-06T19:12:51.002Z,31.73
2019-01-06T19:15:39.424Z,38.10
2019-01-06T19:18:36.926Z,36.10
2019-01-06T19:21:18.347Z,27.90
2019-01-06T19:24:05.111Z,27.57
2019-01-06T19:26:55.170Z,18.60
2019-01-06T19:29:42.456Z,20.07
2019-01-06T19:32:40.072Z,20.60
2019-01-06T19:35:29.388Z,24.77
2019-01-06T19:38:26.523Z,16.97
2019-01-06T19:41:17.638Z,22.67
2019-01-06T19:44:09.533Z,21.77
2019-01-06T19:47:00.885Z,25.57
2019-01-06T19:49:47.675Z,20.33
2019-01-06T19:52:36.162Z,23.40
2019-01-06T19:55:30.540Z,13.90
2019-01-06T19:58:18.888Z,17.80
2019-01-06T20:01:09.984Z,18.13
2019-01-06T20:04:10.837Z,18.47
2019-01-06T20:07:08.301Z,16.47
2019-01-06T20:10:03.075Z,11.80
2019-01-06T20:12:54.702Z,15.67
2019-01-06T20:15:41.728Z,18.23
2019-01-06T20:18:25.873Z,16.97
2019-01-06T20:21:14.509Z,16.07
2019-01-06T20:24:21.277Z,19.43
2019-01-06T20:27:09.270Z,25.73
2019-01-06T20:30:15.974Z,20.70
2019-01-06T20:33:04.308Z,12.37
2019-01-06T20:36:08.259Z,19.43
2019-01-06T20:39:05.665Z,23.33
2019-01-06T20:41:47.293Z,29.23
2019-01-06T20:44:34.579Z,19.07
2019-01-06T20:47:23.231Z,26.83
2019-01-06T20:50:10.641Z,18.43
2019-01-06T20:52:58.983Z,15.53
2019-01-06T20:55:47.606Z,20.70
2019-01-06T20:58:34.586Z,30.80
2019-01-06T21:01:21.489Z,24.20
2019-01-06T21:04:07.074Z,28.33
2019-01-06T21:07:10.407Z,21.93
2019-01-06T21:09:57.902Z,27.33
2019-01-06T21:12:52.059Z,24.70
2019-01-06T21:15:39.097Z,22.43
2019-01-06T21:18:27.541Z,22.30
2019-01-06T21:21:14.515Z,25.83
2019-01-06T21:24:01.142Z,21.97
2019-01-06T21:26:55.603Z,26.13
2019-01-06T21:29:44.896Z,19.97
2019-01-06T21:32:28.851Z,21.67
2019-01-06T21:35:32.090Z,19.00
2019-01-06T21:38:23.239Z,20.20
2019-01-06T21:41:09.986Z,24.47
2019-01-06T21:43:56.317Z,21.73
2019-01-06T21:46:43.551Z,19.30
2019-01-06T21:49:50.369Z,15.80
2019-01-06T21:52:37.453Z,25.37
2019-01-06T21:55:26.183Z,24.13
2019-01-06T21:58:14.514Z,16.20
2019-01-06T22:01:01.521Z,22.00
2019-01-06T22:03:55.701Z,24.73
2019-01-06T22:06:47.013Z,15.23
2019-01-06T22:09:43.550Z,20.53
2019-01-06T22:12:44.427Z,20.73
2019-01-06T22:15:38.578Z,26.53
2019-01-06T22:18:25.372Z,25.67
2019-01-06T22:21:12.129Z,21.47
2019-01-06T22:23:58.788Z,18.07
2019-01-06T22:26:45.610Z,16.70
2019-01-06T22:29:39.774Z,31.17
2019-01-06T22:32:39.909Z,28.67
2019-01-06T22:35:46.550Z,26.83
2019-01-06T22:38:32.613Z,17.07
2019-01-06T22:41:29.597Z,28.73
2019-01-06T22:44:20.679Z,23.00
2019-01-06T22:47:18.086Z,14.57
2019-01-06T22:50:06.416Z,27.80
2019-01-06T22:53:09.970Z,18.07
2019-01-06T22:56:10.491Z,26.43
2019-01-06T22:58:58.990Z,21.60
2019-01-06T23:01:46.072Z,25.50
2019-01-06T23:04:34.688Z,19.47
2019-01-06T23:07:23.808Z,22.13
2019-01-06T23:10:27.146Z,18.30
2019-01-06T23:13:21.602Z,25.50
2019-01-06T23:16:01.048Z,22.73
2019-01-06T23:18:49.933Z,14.43
2019-01-06T23:21:36.992Z,27.53
2019-01-06T23:24:23.191Z,27.40
2019-01-06T23:27:05.371Z,14.30
2019-01-06T23:29:54.025Z,18.90
2019-01-06T23:32:40.109Z,20.90
2019-01-06T23:35:37.564Z,19.30
2019-01-06T23:38:24.600Z,18.07
2019-01-06T23:41:10.167Z,11.93
2019-01-06T23:43:56.837Z,15.73
2019-01-06T23:46:44.015Z,16.20
2019-01-06T23:49:32.361Z,20.77
2019-01-06T23:52:32.833Z,24.00
2019-01-06T23:55:19.786Z,22.57
2019-01-06T23:58:17.145Z,16.67
